Time;durP1;ratioP1;P1;durP2;ratioP2;P2;SDS_P1;SDS_P2;PMS_P1;PMS_P2;Temp;Humidity;BMP_temperature;BMP_pressure;BME280_temperature;BME280_humidity;BME280_pressure;Samples;Min_cycle;Max_cycle;Signal;HPM_P1;HPM_P2
2021/01/24 00:01:23;;;;;;;25.50;13.72;;;;;;;2.60;87.62;98587.02;1808955;78;21147;-82
2021/01/24 00:03:51;;;;;;;23.60;12.58;;;;;;;2.58;87.63;98587.55;1827748;78;21158;-82
2021/01/24 00:06:18;;;;;;;21.35;11.53;;;;;;;2.53;87.86;98586.97;1789286;80;21202;-82
2021/01/24 00:08:45;;;;;;;24.20;12.25;;;;;;;2.63;87.59;98585.52;1832710;78;21717;-82
2021/01/24 00:11:12;;;;;;;25.00;13.28;;;;;;;2.60;87.63;98577.88;1795059;78;21724;-82
2021/01/24 00:13:40;;;;;;;25.00;12.25;;;;;;;2.56;87.75;98573.29;1814870;79;21186;-82
2021/01/24 00:16:07;;;;;;;27.40;13.25;;;;;;;2.66;87.52;98564.48;1809031;79;21182;-84
2021/01/24 00:18:34;;;;;;;25.85;13.50;;;;;;;2.63;87.52;98571.17;1831261;78;21153;-85
2021/01/24 00:21:02;;;;;;;22.82;11.70;;;;;;;2.59;87.70;98565.75;1819361;78;21714;-82
2021/01/24 00:23:30;;;;;;;23.67;12.82;;;;;;;2.68;87.51;98569.14;1747999;81;21368;-83
2021/01/24 00:25:57;;;;;;;28.67;14.93;;;;;;;2.72;87.26;98551.05;1771239;80;21300;-83
2021/01/24 00:28:26;;;;;;;22.80;12.07;;;;;;;2.66;87.46;98556.66;1821847;78;21135;-83
2021/01/24 00:30:53;;;;;;;23.92;11.78;;;;;;;2.65;87.57;98565.41;1813637;78;21211;-83
2021/01/24 00:33:22;;;;;;;24.90;14.28;;;;;;;2.76;87.27;98547.81;1781771;79;21107;-83
2021/01/24 00:35:49;;;;;;;29.85;13.65;;;;;;;2.72;87.34;98549.75;1728215;81;21213;-82
2021/01/24 00:38:17;;;;;;;23.12;10.72;;;;;;;2.67;87.54;98541.34;1751402;80;21238;-82
2021/01/24 00:40:44;;;;;;;24.98;13.38;;;;;;;2.68;87.51;98536.50;1783893;79;21248;-82
2021/01/24 00:43:11;;;;;;;24.80;14.07;;;;;;;2.73;87.26;98521.41;1824784;78;21226;-81
2021/01/24 00:45:39;;;;;;;34.35;12.37;;;;;;;2.75;87.26;98526.09;1769530;80;21671;-82
2021/01/24 00:48:07;;;;;;;24.20;13.38;;;;;;;2.70;87.48;98535.97;1790418;78;21602;-83
2021/01/24 00:50:34;;;;;;;25.77;13.88;;;;;;;2.73;87.48;98534.95;1823735;77;21156;-83
2021/01/24 00:53:02;;;;;;;26.45;14.63;;;;;;;2.83;87.14;98536.57;1803298;78;21164;-83
2021/01/24 00:55:32;;;;;;;23.60;11.20;;;;;;;2.77;87.30;98522.91;1791665;78;21606;-84
2021/01/24 00:58:01;;;;;;;20.90;10.82;;;;;;;2.79;87.42;98517.63;1806143;77;21205;-83
2021/01/24 01:00:28;;;;;;;26.37;13.70;;;;;;;2.92;87.05;98516.44;1782125;79;21659;-83
2021/01/24 01:02:55;;;;;;;24.35;13.10;;;;;;;2.88;87.10;98524.09;1772004;78;21695;-83
2021/01/24 01:05:23;;;;;;;22.50;12.45;;;;;;;2.81;87.39;98509.70;1797454;79;21120;-83
2021/01/24 01:07:50;;;;;;;19.55;10.65;;;;;;;2.88;87.35;98508.42;1769390;80;21175;-83
2021/01/24 01:10:18;;;;;;;23.38;12.65;;;;;;;2.97;87.04;98506.56;1779043;79;21191;-83
2021/01/24 01:12:45;;;;;;;21.60;12.00;;;;;;;2.88;87.21;98499.28;1786183;79;21218;-84
2021/01/24 01:15:14;;;;;;;22.85;12.50;;;;;;;2.91;87.30;98501.70;1791026;80;21102;-84
2021/01/24 01:17:42;;;;;;;24.55;11.60;;;;;;;3.05;86.94;98497.80;1761529;79;21385;-83
2021/01/24 01:20:10;;;;;;;22.55;13.13;;;;;;;3.06;86.87;98516.46;1759061;79;21215;-84
2021/01/24 01:22:37;;;;;;;20.68;11.05;;;;;;;2.99;87.12;98517.74;1814698;78;21202;-83
2021/01/24 01:25:06;;;;;;;19.90;10.10;;;;;;;2.94;87.30;98515.87;1804483;78;21112;-83
2021/01/24 01:27:34;;;;;;;18.62;10.25;;;;;;;3.03;87.17;98512.73;1803308;79;21182;-83
2021/01/24 01:30:06;;;;;;;19.65;10.32;;;;;;;3.04;87.05;98504.42;1809987;77;21193;-83
2021/01/24 01:32:35;;;;;;;17.35;8.60;;;;;;;2.89;87.39;98510.08;1828857;78;21167;-82
2021/01/24 01:35:04;;;;;;;21.42;11.50;;;;;;;2.83;87.66;98506.55;1813208;78;21165;-82
2021/01/24 01:37:32;;;;;;;22.20;11.03;;;;;;;2.90;87.49;98502.17;1805085;79;21193;-83
2021/01/24 01:39:59;;;;;;;18.12;9.13;;;;;;;2.85;87.62;98505.97;1803253;78;21152;-83
2021/01/24 01:42:27;;;;;;;17.35;10.60;;;;;;;2.82;87.97;98515.30;1798548;79;21233;-81
2021/01/24 01:44:55;;;;;;;16.25;8.93;;;;;;;2.95;87.71;98507.11;1799332;79;21176;-82
2021/01/24 01:47:24;;;;;;;17.55;9.98;;;;;;;2.98;87.73;98499.11;1793052;79;21195;-82
2021/01/24 01:49:55;;;;;;;15.48;9.10;;;;;;;2.93;87.94;98499.84;1802214;78;21195;-82
2021/01/24 01:52:25;;;;;;;18.20;9.43;;;;;;;3.07;87.71;98493.33;1807193;78;21162;-82
2021/01/24 01:54:53;;;;;;;13.80;8.05;;;;;;;3.04;87.65;98493.50;1793240;78;21122;-83
2021/01/24 01:57:21;;;;;;;18.45;10.58;;;;;;;3.02;87.82;98507.13;1759165;78;21163;-82
2021/01/24 01:59:50;;;;;;;18.25;9.58;;;;;;;3.11;87.64;98481.76;1781370;78;21181;-82
2021/01/24 02:03:07;;;;;;;18.50;8.95;;;;;;;3.13;87.70;98477.73;1802759;79;21209;-82
2021/01/24 02:06:01;;;;;;;15.95;8.78;;;;;;;3.07;88.01;98482.02;1785068;79;21158;-83
2021/01/24 02:08:40;;;;;;;16.07;8.30;;;;;;;3.11;88.00;98472.62;1827291;78;21299;-83
2021/01/24 03:06:00;;;;;;;13.28;7.33;;;;;;;3.31;89.32;98428.75;1809439;76;21636;-81
2021/01/24 03:08:29;;;;;;;14.23;7.92;;;;;;;3.40;89.11;98424.28;1799992;79;21191;-81
2021/01/24 03:10:56;;;;;;;13.28;7.95;;;;;;;3.46;88.91;98428.75;1803339;79;21199;-81
2021/01/24 03:13:28;;;;;;;11.60;7.17;;;;;;;3.42;89.03;98430.23;1800017;79;21154;-81
2021/01/24 03:15:56;;;;;;;14.85;7.20;;;;;;;3.42;89.12;98427.62;1791897;78;21264;-82
2021/01/24 03:18:26;;;;;;;11.10;7.00;;;;;;;3.57;88.87;98419.78;1797880;79;21129;-81
2021/01/24 03:20:55;;;;;;;11.20;6.62;;;;;;;3.59;88.79;98416.58;1764237;78;21160;-81
2021/01/24 03:23:22;;;;;;;11.45;7.33;;;;;;;3.52;88.96;98416.13;1764085;80;21174;-81
2021/01/24 03:25:49;;;;;;;13.22;7.40;;;;;;;3.59;88.76;98406.13;1779164;79;21203;-81
2021/01/24 03:28:17;;;;;;;14.30;7.03;;;;;;;3.67;88.56;98403.88;1748980;81;21157;-81
2021/01/24 03:30:49;;;;;;;12.75;7.40;;;;;;;3.63;88.69;98401.06;1725975;81;21203;-80
2021/01/24 03:33:16;;;;;;;13.58;6.67;;;;;;;3.61;88.93;98400.34;1768147;79;21194;-81
2021/01/24 03:35:44;;;;;;;12.60;7.53;;;;;;;3.63;88.81;98387.99;1785718;80;21626;-81
2021/01/24 03:38:11;;;;;;;14.55;8.03;;;;;;;3.67;88.86;98396.03;1768446;79;21659;-81
2021/01/24 03:40:38;;;;;;;13.48;8.10;;;;;;;3.69;88.93;98392.01;1765777;80;21554;-81
2021/01/24 03:43:06;;;;;;;17.27;9.73;;;;;;;3.71;88.96;98389.66;1758617;81;21129;-81
2021/01/24 03:45:33;;;;;;;13.10;8.10;;;;;;;3.76;88.82;98390.69;1755003;81;21175;-81
2021/01/24 03:48:01;;;;;;;13.13;8.43;;;;;;;3.74;89.01;98393.86;1758632;81;21136;-82
2021/01/24 03:50:28;;;;;;;11.78;7.87;;;;;;;3.85;88.78;98394.02;1744565;80;21185;-80
2021/01/24 03:52:55;;;;;;;14.07;9.70;;;;;;;3.86;88.72;98398.77;1733169;80;21230;-82
2021/01/24 03:55:23;;;;;;;13.95;8.30;;;;;;;3.81;88.92;98385.14;1757195;80;21162;-81
2021/01/24 03:57:50;;;;;;;16.85;9.40;;;;;;;3.95;88.65;98395.55;1754918;80;21193;-81
2021/01/24 04:00:19;;;;;;;15.35;9.35;;;;;;;3.94;88.50;98384.73;1749525;80;21178;-81
2021/01/24 04:02:46;;;;;;;13.93;8.38;;;;;;;3.92;88.68;98391.35;1742525;80;21686;-80
2021/01/24 04:05:14;;;;;;;17.48;9.23;;;;;;;4.04;88.46;98386.27;1730357;81;21235;-81
2021/01/24 04:07:42;;;;;;;15.03;8.55;;;;;;;3.97;88.61;98380.60;1763604;79;21385;-82
2021/01/24 04:10:13;;;;;;;12.98;8.28;;;;;;;3.97;88.85;98380.60;1767137;80;21655;-82
2021/01/24 04:12:40;;;;;;;13.35;7.72;;;;;;;4.03;88.74;98372.36;1760314;79;21623;-82
2021/01/24 04:15:08;;;;;;;13.88;8.48;;;;;;;3.94;88.87;98376.41;1742778;80;21886;-82
2021/01/24 04:17:36;;;;;;;17.70;10.08;;;;;;;3.99;88.92;98374.81;1784795;78;21285;-83
2021/01/24 04:20:07;;;;;;;13.38;8.23;;;;;;;4.03;88.87;98380.66;1777564;79;21333;-82
2021/01/24 04:22:34;;;;;;;11.83;7.53;;;;;;;4.03;89.02;98374.97;1775266;79;21132;-82
2021/01/24 04:25:02;;;;;;;17.30;9.68;;;;;;;4.12;88.83;98368.75;1806101;78;21196;-80
2021/01/24 04:27:30;;;;;;;14.45;8.25;;;;;;;4.12;88.73;98372.67;1804570;78;21342;-81
2021/01/24 04:29:57;;;;;;;12.63;7.70;;;;;;;4.06;88.89;98372.14;1810469;77;21496;-80
2021/01/24 04:32:25;;;;;;;13.32;7.83;;;;;;;4.09;88.89;98369.34;1803197;78;21135;-80
2021/01/24 04:34:52;;;;;;;11.53;7.37;;;;;;;4.15;88.73;98362.03;1811045;78;21600;-80
2021/01/24 04:37:19;;;;;;;13.32;7.92;;;;;;;4.10;88.91;98363.18;1796591;79;22187;-81
2021/01/24 04:39:46;;;;;;;12.00;7.12;;;;;;;4.08;89.12;98358.50;1799462;78;21115;-81
2021/01/24 04:42:14;;;;;;;9.18;6.20;;;;;;;4.09;89.11;98353.65;1786800;79;21193;-82
2021/01/24 04:44:42;;;;;;;14.33;7.75;;;;;;;4.13;89.02;98359.97;1803537;78;21144;-81
2021/01/24 04:47:10;;;;;;;14.90;8.48;;;;;;;4.16;89.00;98361.92;1793836;78;21156;-82
2021/01/24 04:49:37;;;;;;;14.40;7.78;;;;;;;4.09;89.22;98356.27;1793003;78;21189;-81
2021/01/24 04:52:04;;;;;;;13.45;8.30;;;;;;;4.14;89.24;98355.11;1778947;79;21179;-80
2021/01/24 04:54:32;;;;;;;14.30;7.87;;;;;;;4.21;89.04;98357.70;1779100;79;21209;-80
2021/01/24 04:56:59;;;;;;;16.67;7.83;;;;;;;4.17;89.22;98347.05;1772449;78;21151;-80
2021/01/24 04:59:26;;;;;;;13.25;7.20;;;;;;;4.18;89.38;98346.11;1783608;79;21126;-80
2021/01/24 05:01:53;;;;;;;13.90;6.47;;;;;;;4.21;89.26;98338.08;1794370;78;21185;-80
2021/01/24 05:04:21;;;;;;;13.72;8.15;;;;;;;4.24;89.22;98343.09;1749821;79;21127;-81
2021/01/24 05:06:48;;;;;;;13.25;7.67;;;;;;;4.24;89.19;98341.30;1772350;80;21656;-81
2021/01/24 05:09:17;;;;;;;11.12;6.42;;;;;;;4.18;89.55;98348.73;1763343;80;21530;-81
2021/01/24 05:11:50;;;;;;;12.03;7.62;;;;;;;4.24;89.48;98344.40;1741793;81;21195;-79
2021/01/24 05:14:20;;;;;;;15.55;8.90;;;;;;;4.31;89.28;98347.44;1802352;78;21208;-80
2021/01/24 05:16:52;;;;;;;12.18;8.05;;;;;;;4.25;89.36;98340.36;1793433;79;21169;-81
2021/01/24 05:19:21;;;;;;;11.80;7.75;;;;;;;4.28;89.36;98343.25;1805273;78;21343;-80
2021/01/24 05:21:50;;;;;;;13.80;7.72;;;;;;;4.36;89.11;98344.89;1789361;78;21139;-80
2021/01/24 05:24:19;;;;;;;12.82;7.42;;;;;;;4.28;89.23;98341.94;1777125;80;21182;-80
2021/01/24 05:26:50;;;;;;;13.58;7.08;;;;;;;4.25;89.47;98336.92;1789243;78;21223;-80
2021/01/24 05:29:24;;;;;;;14.25;8.00;;;;;;;4.31;89.40;98338.27;1774637;79;21195;-80
2021/01/24 05:58:23;;;;;;;14.80;8.35;;;;;;;4.42;89.70;98322.69;1756703;79;21746;-79
2021/01/24 06:00:52;;;;;;;16.42;9.00;;;;;;;4.51;89.41;98330.39;1760035;81;21169;-80
2021/01/24 06:03:20;;;;;;;13.68;8.28;;;;;;;4.48;89.55;98320.14;1748571;81;21649;-81
2021/01/24 06:05:48;;;;;;;14.47;8.38;;;;;;;4.57;89.28;98314.27;1716945;82;21609;-81
2021/01/24 06:08:15;;;;;;;15.20;8.33;;;;;;;4.58;89.20;98321.19;1727267;82;21178;-81
2021/01/24 06:10:45;;;;;;;14.05;8.93;;;;;;;4.53;89.39;98322.80;1730179;82;21215;-81
2021/01/24 06:13:20;;;;;;;16.87;8.45;;;;;;;4.62;89.25;98306.94;1709840;83;21193;-81
2021/01/24 06:44:49;;;;;;;18.50;10.38;;;;;;;4.69;89.47;98314.74;1700204;77;21222;-79
2021/01/24 06:47:40;;;;;;;20.55;11.53;;;;;;;4.80;89.28;98319.70;1672761;85;21235;-79
2021/01/24 07:01:31;;;;;;;24.52;13.45;;;;;;;4.82;89.50;98316.48;1774752;80;22850;-80
2021/01/24 07:14:55;;;;;;;27.85;14.95;;;;;;;4.89;89.64;98290.24;1814534;76;22475;-79
2021/01/24 07:17:22;;;;;;;29.05;16.12;;;;;;;4.81;89.77;98297.33;1715173;83;21213;-79
2021/01/24 07:20:08;;;;;;;31.02;14.28;;;;;;;4.84;89.90;98293.66;1660698;85;21214;-78
2021/01/24 07:22:35;;;;;;;29.85;14.53;;;;;;;5.00;89.72;98303.42;1680429;84;21258;-80
2021/01/24 07:25:03;;;;;;;29.60;15.13;;;;;;;5.03;89.59;98308.92;1660906;83;21198;-80
2021/01/24 07:27:31;;;;;;;27.17;14.07;;;;;;;5.04;89.69;98297.50;1711159;83;21208;-81
2021/01/24 07:29:59;;;;;;;29.45;15.25;;;;;;;5.17;89.27;98300.91;1752928;81;21572;-80
2021/01/24 07:32:29;;;;;;;29.70;13.65;;;;;;;5.14;89.23;98300.28;1745341;81;21591;-78
2021/01/24 07:34:57;;;;;;;33.13;16.37;;;;;;;5.18;89.26;98301.73;1726682;81;21213;-77
2021/01/24 07:37:24;;;;;;;32.55;16.60;;;;;;;5.22;89.08;98305.83;1735366;82;21207;-77
2021/01/24 07:39:52;;;;;;;26.12;15.15;;;;;;;5.21;89.13;98314.64;1738270;82;21230;-77
2021/01/24 07:42:20;;;;;;;31.55;16.73;;;;;;;5.30;88.79;98304.80;1732641;81;21207;-77
2021/01/24 07:44:47;;;;;;;30.25;14.93;;;;;;;5.24;88.88;98302.61;1745887;81;21174;-79
2021/01/24 07:47:15;;;;;;;29.25;15.88;;;;;;;5.27;88.92;98303.72;1750309;81;21162;-79
2021/01/24 07:49:43;;;;;;;33.63;16.95;;;;;;;5.32;88.66;98300.30;1736234;81;21201;-79
2021/01/24 07:52:11;;;;;;;31.27;15.13;;;;;;;5.23;88.89;98305.72;1745046;81;21167;-79
2021/01/24 07:54:38;;;;;;;34.48;16.87;;;;;;;5.26;88.81;98296.80;1718986;81;21150;-81
2021/01/24 07:57:07;;;;;;;30.30;15.03;;;;;;;5.31;88.64;98295.99;1726898;81;21680;-79
2021/01/24 07:59:35;;;;;;;35.73;16.80;;;;;;;5.21;88.89;98285.32;1754329;81;21180;-79
2021/01/24 08:02:03;;;;;;;33.30;16.27;;;;;;;5.23;88.96;98283.89;1757355;81;21257;-75
2021/01/24 08:04:36;;;;;;;32.58;15.38;;;;;;;5.32;88.66;98287.19;1746969;81;21213;-78
2021/01/24 08:07:10;;;;;;;31.50;15.72;;;;;;;5.27;88.74;98279.27;1730264;81;21174;-79
2021/01/24 08:09:37;;;;;;;32.15;16.07;;;;;;;5.26;88.87;98281.07;1754025;80;21122;-82
2021/01/24 08:12:12;;;;;;;35.45;17.32;;;;;;;5.35;88.62;98289.58;1725722;81;21160;-77
2021/01/24 08:14:39;;;;;;;31.27;16.35;;;;;;;5.33;88.75;98282.31;1671354;84;21689;-81
2021/01/24 08:17:13;;;;;;;33.08;16.80;;;;;;;5.35;88.90;98273.84;1711146;82;21180;-81
2021/01/24 08:19:41;;;;;;;34.73;16.67;;;;;;;5.46;88.62;98274.84;1714540;82;21182;-77
2021/01/24 08:22:09;;;;;;;33.40;16.57;;;;;;;5.36;88.73;98276.83;1685374;83;21198;-81
2021/01/24 08:24:37;;;;;;;34.48;15.83;;;;;;;5.41;88.79;98266.02;1697579;83;21151;-81
2021/01/24 08:27:05;;;;;;;33.20;16.67;;;;;;;5.54;88.42;98263.34;1704106;83;21243;-80
2021/01/24 08:29:37;;;;;;;34.98;18.95;;;;;;;5.50;88.37;98256.63;1668550;83;21638;-81
2021/01/24 08:32:06;;;;;;;35.83;18.32;;;;;;;5.48;88.53;98269.03;1684753;83;21223;-82
2021/01/24 08:34:34;;;;;;;37.28;17.77;;;;;;;5.59;88.23;98255.97;1690016;84;21216;-81
2021/01/24 08:37:04;;;;;;;36.55;17.77;;;;;;;5.55;88.33;98254.50;1695445;83;21229;-80
2021/01/24 08:39:32;;;;;;;35.30;15.43;;;;;;;5.57;88.45;98251.30;1740691;81;21242;-77
2021/01/24 08:42:05;;;;;;;39.90;21.30;;;;;;;5.60;88.25;98256.34;1750667;81;21212;-78
2021/01/24 08:44:32;;;;;;;35.68;20.68;;;;;;;5.61;88.31;98263.72;1753504;81;21630;-80
2021/01/24 08:47:05;;;;;;;38.63;17.87;;;;;;;5.71;88.18;98249.80;1746487;81;21573;-79
2021/01/24 08:49:33;;;;;;;39.83;20.35;;;;;;;5.70;88.10;98250.77;1741493;81;21626;-81
2021/01/24 08:52:04;;;;;;;41.95;22.45;;;;;;;5.71;88.17;98249.80;1754847;81;21709;-79
2021/01/24 08:54:35;;;;;;;38.35;21.02;;;;;;;5.82;87.87;98250.78;1738995;81;21610;-82
2021/01/24 08:57:18;;;;;;;32.35;15.08;;;;;;;5.80;87.87;98256.15;1699354;83;21242;-80
2021/01/24 08:59:54;;;;;;;28.80;14.43;;;;;;;5.80;87.98;98252.70;1706193;83;21873;-82
2021/01/24 09:02:32;;;;;;;30.20;16.37;;;;;;;5.90;87.70;98251.88;1677989;84;21202;-80
2021/01/24 09:05:01;;;;;;;28.32;16.48;;;;;;;5.85;87.67;98246.63;1697331;83;21209;-80
2021/01/24 09:07:44;;;;;;;36.63;17.00;;;;;;;5.91;87.63;98256.19;1715656;83;21165;-79
2021/01/24 09:10:30;;;;;;;27.45;14.98;;;;;;;6.00;87.28;98245.51;1726152;83;21225;-80
2021/01/24 09:13:03;;;;;;;30.10;14.35;;;;;;;5.99;87.31;98243.83;1689830;84;21352;-80
2021/01/24 09:15:33;;;;;;;28.47;14.05;;;;;;;6.07;87.00;98243.25;1708259;83;21258;-78
2021/01/24 09:18:01;;;;;;;25.05;12.98;;;;;;;6.11;86.79;98238.11;1681038;83;21237;-80
2021/01/24 09:20:29;;;;;;;26.93;13.95;;;;;;;6.08;86.96;98228.35;1685217;84;21178;-81
2021/01/24 09:22:57;;;;;;;31.00;15.58;;;;;;;6.18;86.63;98233.26;1673567;84;21198;-80
2021/01/24 09:25:24;;;;;;;28.10;13.55;;;;;;;6.18;86.50;98234.08;1710464;83;21275;-81
2021/01/24 09:27:52;;;;;;;25.68;13.75;;;;;;;6.18;86.53;98234.08;1711758;83;21374;-82
2021/01/24 10:37:30;;;;;;;24.37;11.15;;;;;;;7.03;83.08;98172.29;1757961;78;21426;-82
2021/01/24 10:39:58;;;;;;;17.37;9.45;;;;;;;7.03;83.13;98176.69;1768460;80;21185;-83
2021/01/24 10:42:25;;;;;;;18.57;10.68;;;;;;;7.10;82.99;98170.45;1740880;82;21216;-83
2021/01/24 10:44:53;;;;;;;21.02;10.93;;;;;;;7.16;82.69;98171.27;1736340;82;21133;-83
2021/01/24 10:47:20;;;;;;;16.12;10.03;;;;;;;7.13;82.80;98178.11;1769538;81;21652;-85
2021/01/24 10:49:47;;;;;;;20.30;10.90;;;;;;;7.25;82.51;98173.17;1761144;81;21699;-82
2021/01/24 10:52:15;;;;;;;21.25;10.75;;;;;;;7.24;82.53;98172.81;1769160;81;21227;-85
2021/01/24 10:54:42;;;;;;;18.30;9.80;;;;;;;7.24;82.66;98168.02;1769420;81;21174;-86
2021/01/24 10:57:10;;;;;;;17.98;10.35;;;;;;;7.32;82.28;98165.11;1792284;79;21194;-86
2021/01/24 10:59:37;;;;;;;19.20;9.78;;;;;;;7.28;82.48;98157.63;1792286;79;21130;-85
2021/01/24 11:02:04;;;;;;;16.85;9.53;;;;;;;7.28;82.54;98157.13;1708220;82;21170;-84
2021/01/24 11:04:33;;;;;;;21.07;11.15;;;;;;;7.33;82.27;98152.33;1742333;82;21567;-85
2021/01/24 11:07:00;;;;;;;17.60;9.58;;;;;;;7.28;82.47;98147.92;1742224;82;21197;-84
2021/01/24 11:09:28;;;;;;;16.42;9.13;;;;;;;7.26;82.59;98136.69;1737479;82;21365;-84
2021/01/24 11:11:59;;;;;;;17.30;9.68;;;;;;;7.38;82.30;98144.89;1759849;81;21122;-85
2021/01/24 11:14:27;;;;;;;16.07;9.05;;;;;;;7.42;82.19;98139.36;1722446;81;21156;-84
2021/01/24 11:16:54;;;;;;;14.18;8.90;;;;;;;7.40;81.99;98135.55;1708624;84;21162;-84
2021/01/24 11:19:22;;;;;;;21.12;10.05;;;;;;;7.52;81.45;98128.45;1681257;84;21202;-85
2021/01/24 11:21:49;;;;;;;27.93;14.00;;;;;;;7.53;81.64;98141.93;1719227;82;21397;-86
2021/01/24 11:24:16;;;;;;;17.45;9.18;;;;;;;7.54;81.48;98133.94;1738311;82;21246;-84
2021/01/24 11:26:44;;;;;;;17.42;9.45;;;;;;;7.64;81.27;98130.03;1730072;82;21221;-83
2021/01/24 11:29:11;;;;;;;14.58;7.78;;;;;;;7.65;81.34;98140.91;1690312;82;21204;-84
2021/01/24 11:31:39;;;;;;;15.85;8.98;;;;;;;7.71;81.13;98129.88;1707258;82;21184;-84
2021/01/24 11:34:07;;;;;;;19.82;8.50;;;;;;;7.80;80.76;98127.42;1686131;83;21675;-83
2021/01/24 11:36:34;;;;;;;16.45;9.18;;;;;;;7.77;80.64;98116.67;1689981;84;21260;-83
2021/01/24 11:39:01;;;;;;;15.80;9.33;;;;;;;7.88;80.37;98112.64;1689223;84;21635;-84
2021/01/24 11:41:28;;;;;;;20.50;8.95;;;;;;;7.98;80.05;98122.38;1703148;82;21199;-83
2021/01/24 11:43:56;;;;;;;13.93;8.50;;;;;;;7.90;80.06;98117.77;1706182;83;21207;-84
2021/01/24 11:46:24;;;;;;;20.17;9.00;;;;;;;7.98;79.98;98119.28;1716810;82;21198;-84
2021/01/24 11:48:52;;;;;;;15.88;8.73;;;;;;;8.00;79.75;98113.88;1694011;83;21211;-85
2021/01/24 11:51:19;;;;;;;13.55;8.48;;;;;;;7.96;79.90;98104.09;1664022;85;21241;-84
2021/01/24 11:53:46;;;;;;;15.98;8.23;;;;;;;8.08;79.72;98107.95;1699332;82;21239;-84
2021/01/24 11:56:14;;;;;;;15.43;8.18;;;;;;;8.07;79.46;98103.18;1697723;82;21167;-84
2021/01/24 11:58:42;;;;;;;15.08;8.50;;;;;;;8.05;79.68;98105.10;1689916;85;21221;-81
2021/01/24 12:01:10;;;;;;;16.90;9.23;;;;;;;8.15;79.58;98097.25;1675765;84;21374;-85
2021/01/24 12:03:39;;;;;;;14.00;7.70;;;;;;;8.14;79.49;98095.58;1678190;84;21633;-82
2021/01/24 12:06:06;;;;;;;16.55;8.18;;;;;;;8.16;79.54;98092.34;1688327;84;21226;-84
2021/01/24 12:08:33;;;;;;;18.23;8.75;;;;;;;8.25;78.95;98084.95;1688896;84;21259;-83
2021/01/24 12:11:01;;;;;;;16.67;7.78;;;;;;;8.20;79.14;98089.78;1688550;84;21195;-85
2021/01/24 12:13:28;;;;;;;14.73;8.13;;;;;;;8.23;79.16;98086.87;1691678;84;21620;-83
2021/01/24 12:15:55;;;;;;;14.33;8.63;;;;;;;8.32;78.73;98086.55;1677330;84;21191;-83
2021/01/24 12:18:23;;;;;;;11.63;7.30;;;;;;;8.31;78.85;98081.78;1687149;84;21357;-84
2021/01/24 12:20:51;;;;;;;13.83;7.42;;;;;;;8.33;78.71;98081.14;1684524;84;21199;-83
2021/01/24 12:23:20;;;;;;;15.88;8.78;;;;;;;8.40;78.40;98075.34;1685619;83;21257;-84
2021/01/24 12:25:48;;;;;;;14.55;7.25;;;;;;;8.34;78.53;98081.50;1703522;82;21675;-84
2021/01/24 12:28:15;;;;;;;14.05;7.78;;;;;;;8.33;78.64;98094.31;1714688;83;21139;-84
2021/01/24 12:30:43;;;;;;;15.20;9.05;;;;;;;8.40;78.37;98085.88;1697228;83;21282;-84
2021/01/24 12:33:11;;;;;;;15.80;10.63;;;;;;;8.34;78.44;98079.36;1682992;83;21231;-84
2021/01/24 12:35:39;;;;;;;13.50;9.30;;;;;;;8.35;78.51;98088.44;1682829;85;21191;-82
2021/01/24 12:38:07;;;;;;;17.35;9.00;;;;;;;8.42;78.34;98096.63;1687997;82;21227;-83
2021/01/24 12:40:35;;;;;;;15.63;8.80;;;;;;;8.33;78.37;98103.53;1681582;84;21234;-82
2021/01/24 12:43:03;;;;;;;17.77;10.35;;;;;;;8.38;78.39;98103.14;1705871;82;22341;-83
2021/01/24 12:45:30;;;;;;;15.95;9.60;;;;;;;8.39;78.12;98102.18;1719314;83;21135;-81
2021/01/24 12:47:57;;;;;;;14.58;8.93;;;;;;;8.36;78.27;98110.33;1701769;82;21197;-81
2021/01/24 12:50:25;;;;;;;15.20;9.35;;;;;;;8.43;78.11;98115.92;1698851;84;21230;-78
2021/01/24 12:52:52;;;;;;;15.58;9.40;;;;;;;8.41;78.13;98108.63;1701427;82;21769;-79
2021/01/24 12:55:19;;;;;;;13.90;8.63;;;;;;;8.36;78.27;98119.09;1702367;82;21183;-79
2021/01/24 12:57:46;;;;;;;14.65;9.20;;;;;;;8.42;78.07;98122.15;1673607;83;21224;-79
2021/01/24 13:00:15;;;;;;;13.85;8.43;;;;;;;8.36;78.12;98116.45;1687296;84;21191;-79
2021/01/24 13:02:42;;;;;;;14.00;8.83;;;;;;;8.30;78.47;98114.34;1710492;83;21732;-79
2021/01/24 13:05:13;;;;;;;17.15;9.43;;;;;;;8.37;78.39;98118.09;1710446;83;21210;-77
2021/01/24 13:07:41;;;;;;;14.90;9.00;;;;;;;8.32;78.54;98122.93;1688964;82;21159;-77
2021/01/24 13:10:09;;;;;;;15.63;9.65;;;;;;;8.27;78.84;98125.13;1705302;82;21210;-78
2021/01/24 13:12:38;;;;;;;19.07;11.38;;;;;;;8.34;78.76;98122.33;1699157;83;21222;-80
2021/01/24 13:15:07;;;;;;;14.73;8.55;;;;;;;8.29;78.80;98121.07;1711453;82;21193;-78
2021/01/24 13:17:35;;;;;;;15.28;9.53;;;;;;;8.28;78.91;98122.86;1699648;82;21329;-78
2021/01/24 13:20:04;;;;;;;15.38;8.93;;;;;;;8.34;78.86;98116.23;1702320;83;21334;-80
2021/01/24 13:22:32;;;;;;;14.10;8.60;;;;;;;8.24;79.02;98120.14;1693822;82;21281;-85
2021/01/24 13:24:59;;;;;;;19.42;11.78;;;;;;;8.30;79.04;98124.88;1697778;82;21214;-79
2021/01/24 13:27:27;;;;;;;16.57;10.32;;;;;;;8.30;78.96;98114.81;1706723;82;21587;-77
2021/01/24 13:29:54;;;;;;;17.52;8.68;;;;;;;8.21;79.21;98124.38;1728356;82;21220;-78
2021/01/24 13:32:23;;;;;;;15.20;9.45;;;;;;;8.25;79.21;98123.59;1679957;82;21192;-78
2021/01/24 13:34:51;;;;;;;14.20;9.20;;;;;;;8.26;79.19;98128.76;1710366;82;21187;-79
2021/01/24 13:37:18;;;;;;;14.60;8.53;;;;;;;8.15;79.56;98132.80;1715869;82;21206;-78
2021/01/24 13:39:45;;;;;;;18.75;10.18;;;;;;;8.19;79.65;98132.88;1718388;82;21158;-79
2021/01/24 13:42:13;;;;;;;16.80;9.93;;;;;;;8.14;79.93;98130.62;1715083;83;21280;-78
2021/01/24 13:44:40;;;;;;;15.25;9.05;;;;;;;8.01;80.44;98126.91;1678645;84;21647;-78
2021/01/24 13:47:07;;;;;;;17.15;10.88;;;;;;;8.06;80.64;98125.67;1677249;83;21159;-79
2021/01/24 13:49:35;;;;;;;17.57;9.30;;;;;;;8.05;80.67;98130.11;1685500;83;21207;-78
2021/01/24 13:52:02;;;;;;;13.90;9.15;;;;;;;8.00;80.90;98129.18;1682078;84;21399;-80
2021/01/24 13:54:30;;;;;;;14.68;9.15;;;;;;;8.04;80.97;98125.34;1678888;83;21223;-78
2021/01/24 13:56:57;;;;;;;15.80;10.08;;;;;;;8.01;81.15;98125.59;1692469;83;21186;-76
2021/01/24 13:59:26;;;;;;;15.90;9.13;;;;;;;7.91;81.54;98128.66;1699472;83;21245;-79
2021/01/24 14:01:54;;;;;;;16.35;10.10;;;;;;;7.95;81.53;98126.11;1671255;83;21220;-77
2021/01/24 14:04:22;;;;;;;16.77;10.88;;;;;;;7.98;81.56;98122.38;1673334;84;21255;-77
2021/01/24 14:06:50;;;;;;;11.73;9.00;;;;;;;7.87;81.83;98132.03;1699984;82;21175;-77
2021/01/24 14:09:18;;;;;;;16.97;10.58;;;;;;;7.90;81.94;98117.77;1703430;83;21374;-78
2021/01/24 14:11:46;;;;;;;14.90;9.80;;;;;;;7.96;81.71;98113.30;1693287;83;21690;-78
2021/01/24 14:14:15;;;;;;;16.45;9.13;;;;;;;7.85;81.97;98123.91;1685166;83;21326;-76
2021/01/24 14:16:42;;;;;;;16.48;10.80;;;;;;;7.85;82.10;98126.08;1688194;83;21340;-78
2021/01/24 14:19:10;;;;;;;16.60;10.15;;;;;;;7.87;82.00;98117.55;1700523;83;21211;-78
2021/01/24 14:21:37;;;;;;;20.05;11.80;;;;;;;7.78;82.27;98117.03;1686067;83;21156;-78
2021/01/24 14:24:06;;;;;;;18.05;11.28;;;;;;;7.86;82.11;98123.80;1681903;84;21227;-77
2021/01/24 14:26:34;;;;;;;14.28;9.53;;;;;;;7.89;82.03;98125.34;1685885;83;21215;-78
2021/01/24 14:29:01;;;;;;;18.80;10.90;;;;;;;7.86;82.03;98128.22;1711650;83;21208;-78
2021/01/24 14:31:30;;;;;;;17.23;9.50;;;;;;;7.95;81.83;98134.50;1704640;83;21209;-78
2021/01/24 14:33:58;;;;;;;15.60;9.38;;;;;;;7.94;81.80;98134.14;1695808;83;21234;-77
2021/01/24 14:36:25;;;;;;;14.13;9.53;;;;;;;7.87;81.97;98135.98;1701901;83;21157;-73
2021/01/24 14:38:56;;;;;;;27.87;16.40;;;;;;;7.96;82.02;98133.05;1674369;83;21647;-77
2021/01/24 14:41:24;;;;;;;15.53;9.58;;;;;;;8.00;82.39;98135.76;1686124;83;21129;-76
2021/01/24 14:43:51;;;;;;;12.73;9.03;;;;;;;8.06;82.09;98133.56;1673753;84;21217;-75
2021/01/24 14:46:19;;;;;;;15.72;9.73;;;;;;;8.20;81.68;98138.50;1690691;83;21175;-74
2021/01/24 14:48:48;;;;;;;13.05;8.23;;;;;;;8.16;81.66;98138.42;1686459;83;21219;-74
2021/01/24 14:51:15;;;;;;;13.28;9.20;;;;;;;8.18;81.71;98143.05;1711537;83;21825;-74
2021/01/24 14:53:42;;;;;;;15.48;9.35;;;;;;;8.22;81.49;98139.19;1698136;83;21211;-75
2021/01/24 14:56:09;;;;;;;13.78;8.78;;;;;;;8.15;81.84;98143.33;1681720;84;21195;-76